Time;durP1;ratioP1;P1;durP2;ratioP2;P2;SDS_P1;SDS_P2;PMS_P1;PMS_P2;Temp;Humidity;BMP_temperature;BMP_pressure;BME280_temperature;BME280_humidity;BME280_pressure;Samples;Min_cycle;Max_cycle;Signal;HPM_P1;HPM_P2
2022/10/06 00:02:08;;;;;;;10.20;9.73;;;;;;;7.55;98.87;94002.06;5068343;28;20271;-76
2022/10/06 00:04:34;;;;;;;10.90;10.20;;;;;;;7.52;98.64;94005.09;5069466;28;20235;-76
2022/10/06 00:06:59;;;;;;;10.30;9.43;;;;;;;7.47;99.31;94017.97;5067614;28;20241;-76
2022/10/06 00:09:24;;;;;;;11.33;10.53;;;;;;;7.46;99.03;94002.63;5069362;28;20697;-76
2022/10/06 00:11:50;;;;;;;11.90;11.10;;;;;;;7.42;99.51;94011.88;5068786;28;20260;-76
2022/10/06 00:14:15;;;;;;;10.30;9.80;;;;;;;7.36;99.33;93995.38;5068947;28;20177;-76
2022/10/06 00:16:41;;;;;;;11.17;10.57;;;;;;;7.10;100.00;93982.81;5068955;28;20192;-76
2022/10/06 00:19:06;;;;;;;10.77;10.10;;;;;;;7.20;100.00;93977.06;5069534;28;20252;-76
2022/10/06 00:21:31;;;;;;;11.83;10.97;;;;;;;7.51;99.13;93995.75;5067976;28;20212;-75
2022/10/06 00:23:57;;;;;;;13.00;11.87;;;;;;;7.45;99.06;94001.03;5067301;28;20231;-75
2022/10/06 00:26:23;;;;;;;15.57;14.17;;;;;;;7.28;99.38;93974.94;5068964;28;20194;-76
2022/10/06 00:28:49;;;;;;;13.37;12.37;;;;;;;7.18;99.99;93992.06;5068794;28;20221;-76
2022/10/06 00:31:15;;;;;;;11.57;10.67;;;;;;;7.18;99.94;93984.28;5068908;28;20213;-75
2022/10/06 00:33:41;;;;;;;11.27;10.57;;;;;;;7.15;99.74;93977.75;5068758;28;20221;-76
2022/10/06 00:36:07;;;;;;;10.77;10.27;;;;;;;7.24;99.93;93993.78;5068888;28;20185;-76
2022/10/06 00:38:33;;;;;;;10.77;10.17;;;;;;;7.18;100.00;93992.06;5068974;28;20220;-76
2022/10/06 00:40:59;;;;;;;11.33;10.60;;;;;;;7.19;100.00;93986.66;5068673;28;20197;-76
2022/10/06 00:43:47;;;;;;;13.10;11.80;;;;;;;7.27;100.00;93982.97;5068843;28;20217;-76
2022/10/06 00:46:31;;;;;;;13.13;12.03;;;;;;;7.29;99.91;93986.09;5068865;28;20182;-76
2022/10/06 00:49:22;;;;;;;15.33;13.73;;;;;;;7.23;99.51;93968.81;5068663;28;20217;-76
2022/10/06 00:51:53;;;;;;;21.43;14.50;;;;;;;6.94;99.08;93936.72;5067771;28;20231;-76
2022/10/06 00:54:20;;;;;;;14.27;12.63;;;;;;;7.17;99.66;93975.72;5084439;28;20196;-76
2022/10/06 00:56:46;;;;;;;13.90;12.47;;;;;;;7.22;99.58;93981.00;5068087;28;20702;-76
2022/10/06 00:59:13;;;;;;;12.03;11.03;;;;;;;7.18;99.39;93969.50;5068405;28;20201;-76
2022/10/06 01:01:45;;;;;;;13.00;11.90;;;;;;;7.14;99.23;93964.97;5068661;28;20186;-76
2022/10/06 01:04:13;;;;;;;15.33;13.87;;;;;;;7.10;100.00;93962.03;5068498;28;20229;-75
2022/10/06 01:06:44;;;;;;;16.57;14.13;;;;;;;7.10;100.00;93956.03;5067950;28;20215;-76
2022/10/06 01:09:11;;;;;;;16.67;13.63;;;;;;;7.16;100.00;93955.94;5068776;28;20193;-76
2022/10/06 01:11:37;;;;;;;14.30;12.90;;;;;;;7.03;100.00;93956.16;5070709;28;20192;-76
2022/10/06 01:14:03;;;;;;;13.77;12.67;;;;;;;7.03;100.00;93960.56;5071925;28;20242;-75
2022/10/06 01:16:33;;;;;;;12.83;11.70;;;;;;;6.85;100.00;93935.47;5072276;28;20189;-76
2022/10/06 01:19:02;;;;;;;12.87;11.87;;;;;;;6.80;100.00;93924.97;5070791;28;20219;-76
2022/10/06 01:21:39;;;;;;;12.87;11.77;;;;;;;6.84;100.00;93925.31;5070157;28;20193;-75
2022/10/06 01:24:05;;;;;;;12.57;11.70;;;;;;;6.82;100.00;93916.97;5070391;28;20254;-75
2022/10/06 01:26:34;;;;;;;11.97;11.27;;;;;;;6.90;100.00;93927.81;5072169;28;20202;-76
2022/10/06 01:29:00;;;;;;;10.60;9.87;;;;;;;6.76;100.00;93917.84;5071178;28;20248;-76
2022/10/06 01:31:26;;;;;;;10.47;9.67;;;;;;;6.91;100.00;93929.38;5071533;28;20173;-75
2022/10/06 01:33:53;;;;;;;10.33;9.77;;;;;;;6.82;100.00;93916.97;5071681;28;20970;-76
2022/10/06 01:36:19;;;;;;;10.00;9.50;;;;;;;6.85;100.00;93937.28;5071862;28;20204;-76
2022/10/06 01:38:44;;;;;;;10.67;10.23;;;;;;;6.77;100.00;93935.00;5071389;28;20209;-76
2022/10/06 01:41:10;;;;;;;10.47;9.97;;;;;;;6.74;100.00;93933.63;5071301;28;20276;-76
2022/10/06 01:43:35;;;;;;;10.33;9.93;;;;;;;6.59;100.00;93928.09;5071203;28;20237;-76
2022/10/06 01:46:01;;;;;;;9.70;9.20;;;;;;;6.60;100.00;93924.47;5070921;28;20185;-76
2022/10/06 01:48:27;;;;;;;11.40;10.60;;;;;;;6.70;100.00;93944.69;5071216;28;20213;-76
2022/10/06 01:50:53;;;;;;;11.10;10.40;;;;;;;6.69;100.00;93940.53;5071199;28;20233;-75
2022/10/06 01:53:18;;;;;;;10.13;9.73;;;;;;;6.74;100.00;93941.41;5068553;28;20215;-76
2022/10/06 01:55:43;;;;;;;10.70;10.17;;;;;;;6.67;100.00;93919.97;5071185;28;20178;-75
2022/10/06 01:58:09;;;;;;;10.50;9.97;;;;;;;6.72;100.00;93917.53;5070467;28;20217;-75
2022/10/06 02:00:35;;;;;;;9.33;8.83;;;;;;;6.88;100.00;93942.81;5070909;28;20170;-75
2022/10/06 02:03:01;;;;;;;10.43;10.03;;;;;;;6.91;100.00;93939.00;5070651;28;21113;-76
2022/10/06 02:05:26;;;;;;;10.43;9.83;;;;;;;6.74;100.00;93919.88;5069982;28;20194;-76
2022/10/06 02:07:52;;;;;;;10.33;9.93;;;;;;;6.66;100.00;93913.22;5071176;28;20225;-76
2022/10/06 02:10:17;;;;;;;9.67;9.27;;;;;;;6.85;100.00;93938.06;5069234;28;20185;-76
2022/10/06 02:12:43;;;;;;;9.77;9.27;;;;;;;6.67;100.00;93914.78;5071214;28;20252;-76
2022/10/06 02:15:11;;;;;;;10.77;10.27;;;;;;;6.62;100.00;93935.41;5070569;28;20188;-75
2022/10/06 02:17:37;;;;;;;9.90;9.50;;;;;;;6.77;100.00;93946.16;5070781;28;20260;-76
2022/10/06 02:20:04;;;;;;;12.57;10.07;;;;;;;6.79;100.00;93941.56;5070914;28;20189;-75
2022/10/06 02:22:30;;;;;;;10.20;9.80;;;;;;;6.44;100.00;93894.75;5069804;28;20217;-75
2022/10/06 02:24:55;;;;;;;10.63;10.00;;;;;;;6.73;100.00;93942.44;5069735;28;20184;-76
2022/10/06 02:27:21;;;;;;;10.27;9.80;;;;;;;6.72;100.00;93922.72;5070276;28;20244;-76
2022/10/06 02:29:48;;;;;;;10.40;10.00;;;;;;;6.81;100.00;93934.34;5070607;28;20190;-77
2022/10/06 02:32:13;;;;;;;10.07;9.57;;;;;;;6.56;100.00;93887.00;5068972;28;21287;-76
2022/10/06 02:34:38;;;;;;;11.13;10.53;;;;;;;6.55;100.00;93929.56;5070167;28;20174;-76
2022/10/06 02:37:04;;;;;;;10.17;9.77;;;;;;;6.70;100.00;93932.50;5070433;28;20229;-75
2022/10/06 02:39:29;;;;;;;9.67;9.10;;;;;;;6.71;100.00;93905.53;5070816;28;20189;-75
2022/10/06 02:41:55;;;;;;;10.00;9.50;;;;;;;6.60;100.00;93919.28;5070181;28;20224;-76
2022/10/06 02:44:20;;;;;;;10.80;10.00;;;;;;;6.57;100.00;93926.72;5070313;28;20238;-76
2022/10/06 02:46:47;;;;;;;10.17;9.60;;;;;;;6.26;100.00;93873.28;5070190;28;20786;-76
2022/10/06 02:49:12;;;;;;;10.70;9.97;;;;;;;6.66;100.00;93928.78;5069523;28;20205;-76
2022/10/06 02:51:37;;;;;;;10.10;9.57;;;;;;;6.54;100.00;93925.34;5069430;28;20201;-76
2022/10/06 02:54:03;;;;;;;9.93;9.37;;;;;;;6.65;100.00;93937.56;5076130;28;20186;-76
2022/10/06 02:56:28;;;;;;;9.73;9.20;;;;;;;6.51;100.00;93930.97;5070559;28;20189;-76
2022/10/06 02:58:54;;;;;;;10.37;9.67;;;;;;;6.54;100.00;93920.97;5069866;28;20222;-76
2022/10/06 03:01:22;;;;;;;9.77;9.27;;;;;;;6.81;100.00;93939.53;5069114;28;20173;-76
2022/10/06 03:03:48;;;;;;;10.40;9.80;;;;;;;6.93;100.00;93937.75;5069631;28;20339;-76
2022/10/06 03:06:22;;;;;;;9.83;9.33;;;;;;;6.91;100.00;93937.16;5070415;28;20197;-76
2022/10/06 03:08:54;;;;;;;9.47;9.17;;;;;;;6.76;99.98;93943.78;5070051;28;20272;-76
2022/10/06 03:11:22;;;;;;;10.67;9.87;;;;;;;6.65;100.00;93937.56;5069194;28;20177;-75
2022/10/06 03:13:50;;;;;;;10.07;9.67;;;;;;;6.65;100.00;93934.97;5068777;28;20227;-76
2022/10/06 03:16:21;;;;;;;10.73;9.97;;;;;;;6.67;100.00;93929.56;5067991;28;20193;-76
2022/10/06 03:18:48;;;;;;;9.90;9.50;;;;;;;6.74;100.00;93931.03;5067840;28;20252;-76
2022/10/06 03:21:15;;;;;;;10.47;10.07;;;;;;;6.79;100.00;93936.38;5068491;28;20185;-76
2022/10/06 03:23:45;;;;;;;9.30;8.93;;;;;;;6.68;100.00;93933.75;5069475;28;20242;-76
2022/10/06 03:26:11;;;;;;;10.67;10.17;;;;;;;6.55;100.00;93930.31;5069756;28;20262;-75
2022/10/06 03:28:38;;;;;;;10.53;10.03;;;;;;;6.54;100.00;93927.94;5069758;28;20303;-76
2022/10/06 03:31:05;;;;;;;10.53;10.10;;;;;;;6.53;100.00;93922.00;5070009;28;20261;-76
2022/10/06 03:33:31;;;;;;;10.83;10.33;;;;;;;6.55;100.00;93932.91;5068769;28;20255;-76
2022/10/06 03:36:09;;;;;;;9.83;8.90;;;;;;;6.52;100.00;93927.41;5069276;28;20185;-76
2022/10/06 03:38:35;;;;;;;10.00;9.37;;;;;;;6.53;100.00;93928.97;5085230;28;20240;-76
2022/10/06 03:41:25;;;;;;;9.63;9.20;;;;;;;6.54;100.00;93918.38;5068184;28;20280;-76
2022/10/06 03:43:52;;;;;;;9.13;8.73;;;;;;;6.54;100.00;93918.38;5069415;28;20225;-76
2022/10/06 03:46:20;;;;;;;9.80;9.40;;;;;;;6.32;100.00;93903.50;5069219;28;20173;-76
2022/10/06 03:48:47;;;;;;;10.73;10.13;;;;;;;6.45;100.00;93922.28;5069147;28;20224;-76
2022/10/06 03:51:26;;;;;;;10.60;10.10;;;;;;;6.41;100.00;93900.38;5069153;28;20189;-75
2022/10/06 03:53:52;;;;;;;9.53;9.13;;;;;;;6.46;100.00;93916.09;5068469;28;20292;-75
2022/10/06 03:56:19;;;;;;;9.73;9.13;;;;;;;6.49;100.00;93910.44;5068092;28;20213;-75
2022/10/06 03:58:47;;;;;;;10.30;9.80;;;;;;;6.39;100.00;93901.63;5068707;28;20291;-76
2022/10/06 04:01:14;;;;;;;11.20;10.27;;;;;;;6.39;100.00;93912.81;5068532;28;20211;-76
2022/10/06 04:03:40;;;;;;;10.17;9.57;;;;;;;6.35;100.00;93895.31;5067384;28;20243;-78
2022/10/06 04:06:10;;;;;;;10.77;9.97;;;;;;;6.44;100.00;93914.75;5068655;28;20245;-78
2022/10/06 04:08:38;;;;;;;9.77;9.27;;;;;;;6.31;100.00;93909.72;5065833;28;20229;-75
2022/10/06 04:11:14;;;;;;;9.40;8.97;;;;;;;6.35;100.00;93916.06;5067630;28;20189;-76
2022/10/06 04:13:41;;;;;;;9.53;9.20;;;;;;;6.36;100.00;93918.44;5066661;28;20228;-77
2022/10/06 04:16:14;;;;;;;9.93;9.53;;;;;;;6.32;100.00;93922.47;5067748;28;20178;-75
2022/10/06 04:18:40;;;;;;;9.77;9.27;;;;;;;6.47;100.00;93924.66;5065319;28;20232;-77
2022/10/06 04:21:05;;;;;;;10.13;9.33;;;;;;;6.27;100.00;93908.59;5066860;28;20189;-74
2022/10/06 04:23:31;;;;;;;8.90;8.40;;;;;;;6.28;100.00;93923.13;5065242;28;20233;-76
2022/10/06 04:26:01;;;;;;;10.13;9.63;;;;;;;6.08;100.00;93920.00;5082480;28;20187;-74
2022/10/06 04:28:28;;;;;;;9.80;9.40;;;;;;;6.06;100.00;93909.06;5049439;28;20219;-78
2022/10/06 04:30:55;;;;;;;10.60;10.00;;;;;;;6.21;100.00;93920.63;5076686;28;20182;-72
2022/10/06 04:33:21;;;;;;;12.17;11.00;;;;;;;6.16;100.00;93896.38;5062091;28;20259;-74
2022/10/06 04:35:46;;;;;;;10.27;9.77;;;;;;;6.29;100.00;93919.50;5066886;28;20193;-75
2022/10/06 04:38:13;;;;;;;11.57;10.97;;;;;;;6.22;100.00;93895.50;5067384;28;20225;-76
2022/10/06 04:40:39;;;;;;;10.70;10.20;;;;;;;6.19;100.00;93907.09;5067341;28;20188;-73
2022/10/06 04:43:04;;;;;;;10.37;9.40;;;;;;;6.18;100.00;93926.25;5066679;28;20229;-82
2022/10/06 04:45:29;;;;;;;10.87;10.37;;;;;;;6.15;100.00;93920.69;5067876;28;20201;-76
2022/10/06 04:47:55;;;;;;;10.60;10.10;;;;;;;6.14;100.00;93914.75;5071638;28;20235;-78
2022/10/06 04:50:20;;;;;;;9.47;8.87;;;;;;;6.25;100.00;93937.34;5071437;28;20955;-74
2022/10/06 04:52:45;;;;;;;10.17;9.57;;;;;;;6.22;100.00;93929.19;5071090;28;20247;-74
2022/10/06 04:55:11;;;;;;;9.83;9.37;;;;;;;6.40;100.00;93934.34;5069876;28;20244;-72
2022/10/06 04:57:36;;;;;;;10.33;9.73;;;;;;;6.60;100.00;93934.84;5070664;28;20225;-72
2022/10/06 05:02:46;;;;;;;11.50;10.80;;;;;;;6.23;100.00;93913.41;5070592;28;20381;-77
2022/10/06 05:05:11;;;;;;;11.53;10.70;;;;;;;6.49;100.00;93949.38;5071364;28;20190;-75
2022/10/06 05:07:37;;;;;;;10.87;10.17;;;;;;;6.56;100.00;93954.47;5069404;28;20280;-73
2022/10/06 05:10:02;;;;;;;11.97;10.47;;;;;;;6.69;100.00;93946.50;5070897;28;20204;-73
2022/10/06 05:12:30;;;;;;;12.57;11.77;;;;;;;6.60;100.00;93940.03;5069739;28;20237;-72
2022/10/06 05:14:56;;;;;;;11.83;10.73;;;;;;;6.57;100.00;93950.84;5070642;28;20272;-71
2022/10/06 05:17:22;;;;;;;12.10;11.47;;;;;;;6.50;100.00;93939.78;5062392;28;20221;-72
2022/10/06 05:19:47;;;;;;;12.40;11.30;;;;;;;6.47;100.00;93933.22;5044292;28;20202;-71
2022/10/06 05:22:12;;;;;;;12.23;11.13;;;;;;;6.74;100.00;93931.03;5049545;28;20226;-72
2022/10/06 05:24:38;;;;;;;12.17;11.37;;;;;;;6.89;100.00;93941.81;5063682;28;20248;-72
2022/10/06 05:27:05;;;;;;;11.27;10.57;;;;;;;6.93;100.00;93950.72;5062086;28;20240;-72
2022/10/06 05:29:30;;;;;;;12.37;11.37;;;;;;;6.96;100.00;93949.50;5071062;28;20208;-72
2022/10/06 05:31:56;;;;;;;12.03;11.30;;;;;;;6.93;100.00;93923.97;5069776;28;20261;-72
2022/10/06 05:34:21;;;;;;;11.83;10.93;;;;;;;7.23;100.00;93951.44;5070511;28;20276;-72
2022/10/06 05:36:47;;;;;;;13.73;11.33;;;;;;;6.91;100.00;93892.28;5070135;28;20185;-72
2022/10/06 05:39:12;;;;;;;14.63;11.70;;;;;;;7.34;100.00;93947.28;5070912;28;20181;-72
2022/10/06 05:41:37;;;;;;;10.33;9.83;;;;;;;7.49;100.00;93945.78;5070472;28;20273;-72
2022/10/06 05:44:03;;;;;;;12.07;11.27;;;;;;;7.70;100.00;93945.22;5069672;28;20221;-72
2022/10/06 05:46:31;;;;;;;11.03;10.23;;;;;;;7.71;100.00;93928.59;5069717;28;20248;-72
2022/10/06 05:48:58;;;;;;;14.77;9.70;;;;;;;7.94;99.94;93944.16;5069570;28;20241;-72
2022/10/06 05:51:27;;;;;;;10.10;9.33;;;;;;;8.11;98.75;93955.44;5070393;28;20197;-72
2022/10/06 05:53:52;;;;;;;11.30;10.67;;;;;;;8.18;98.62;93955.31;5069844;28;20293;-72
2022/10/06 05:56:23;;;;;;;11.67;10.90;;;;;;;8.30;97.86;93958.69;5068706;28;20185;-73
2022/10/06 05:58:53;;;;;;;11.93;10.97;;;;;;;8.24;96.99;93933.59;5069767;28;20217;-72
2022/10/06 06:01:41;;;;;;;12.17;11.03;;;;;;;8.80;92.62;93964.03;5071039;28;20216;-72
2022/10/06 06:04:09;;;;;;;13.10;12.20;;;;;;;8.76;93.85;93966.31;5068867;28;20245;-71
2022/10/06 06:06:36;;;;;;;12.43;11.43;;;;;;;8.86;94.18;93960.47;5069359;28;20204;-73
2022/10/06 06:09:08;;;;;;;12.80;11.90;;;;;;;8.87;94.55;93962.06;5069822;28;20185;-71
2022/10/06 06:11:36;;;;;;;12.70;11.80;;;;;;;9.02;93.68;93963.13;5068551;28;20181;-74
2022/10/06 06:14:07;;;;;;;13.77;12.77;;;;;;;9.11;93.51;93968.72;5064959;28;20216;-71
2022/10/06 06:16:34;;;;;;;19.40;17.47;;;;;;;9.04;93.64;93955.06;5069631;28;20189;-72
2022/10/06 06:19:00;;;;;;;13.20;11.97;;;;;;;9.27;92.28;93971.34;5068961;28;20193;-70
2022/10/06 06:21:26;;;;;;;13.70;12.70;;;;;;;9.10;93.45;93961.94;5069535;28;20198;-71
2022/10/06 06:23:52;;;;;;;13.57;12.53;;;;;;;9.16;92.55;93953.19;5069190;28;20556;-71
2022/10/06 06:26:23;;;;;;;14.00;12.90;;;;;;;9.60;90.52;93970.53;5068916;28;20190;-71
2022/10/06 06:28:50;;;;;;;14.23;12.93;;;;;;;9.71;89.16;93961.84;5038171;28;20237;-70
2022/10/06 06:31:19;;;;;;;13.07;12.17;;;;;;;9.84;88.54;93971.91;5042851;28;20177;-70
2022/10/06 06:33:46;;;;;;;12.23;11.23;;;;;;;9.67;88.86;93958.13;5042674;28;20257;-71
2022/10/06 06:36:13;;;;;;;14.17;13.07;;;;;;;9.62;89.40;93971.06;5041363;28;20190;-70
2022/10/06 06:38:38;;;;;;;14.47;13.17;;;;;;;9.56;91.87;93991.09;5067220;28;20248;-69
2022/10/06 06:41:03;;;;;;;13.57;12.40;;;;;;;9.61;90.74;93985.94;5069902;28;20200;-70
2022/10/06 06:43:29;;;;;;;17.23;13.43;;;;;;;9.47;91.38;93978.69;5068589;28;20298;-70
2022/10/06 06:46:04;;;;;;;14.37;13.07;;;;;;;9.60;89.99;93980.97;5069746;28;20216;-70
2022/10/06 06:48:29;;;;;;;14.70;12.97;;;;;;;9.58;89.76;93973.38;5068817;28;20223;-70
2022/10/06 06:50:56;;;;;;;15.20;13.77;;;;;;;9.82;88.72;93979.22;5069419;28;20221;-70
2022/10/06 06:53:22;;;;;;;18.77;13.10;;;;;;;9.09;91.97;93931.72;5068586;28;20221;-71
2022/10/06 06:55:49;;;;;;;17.57;13.77;;;;;;;9.70;91.06;93975.88;5069017;28;20192;-71
2022/10/06 06:58:15;;;;;;;17.23;14.10;;;;;;;9.71;90.06;93980.88;5068075;28;20217;-71
2022/10/06 07:00:41;;;;;;;19.93;14.27;;;;;;;9.92;89.05;93973.31;5067365;28;20242;-71
2022/10/06 07:03:10;;;;;;;21.90;14.63;;;;;;;10.01;88.42;93977.13;5068096;28;20233;-70
2022/10/06 07:05:36;;;;;;;15.60;13.83;;;;;;;10.13;88.29;93978.63;5068097;28;21153;-72
2022/10/06 07:08:01;;;;;;;16.07;14.77;;;;;;;10.00;88.45;93965.88;5066114;28;20290;-71
2022/10/06 07:10:26;;;;;;;16.03;14.47;;;;;;;10.05;88.32;93973.78;5068875;28;20714;-71
2022/10/06 07:12:52;;;;;;;25.30;13.77;;;;;;;10.21;87.73;93972.94;5068636;28;20218;-72
2022/10/06 07:26:14;;;;;;;17.13;14.00;;;;;;;10.61;84.43;93954.34;5068564;28;20220;-71
2022/10/06 07:28:41;;;;;;;16.37;13.83;;;;;;;10.86;83.86;93971.06;5050499;28;20226;-71
2022/10/06 07:31:06;;;;;;;16.67;14.13;;;;;;;11.05;82.48;93974.16;5048399;28;20186;-70
2022/10/06 07:33:31;;;;;;;15.50;13.83;;;;;;;11.18;81.46;93958.84;5063584;28;20284;-73
2022/10/06 07:35:57;;;;;;;15.33;13.97;;;;;;;11.08;81.96;93977.03;5068196;28;20186;-72
2022/10/06 07:38:26;;;;;;;17.47;13.77;;;;;;;10.82;82.45;93959.53;5067780;28;20774;-71
2022/10/06 07:40:55;;;;;;;14.80;13.37;;;;;;;11.02;82.14;93964.16;5069103;28;20194;-72
2022/10/06 07:43:21;;;;;;;14.40;12.90;;;;;;;10.84;83.69;93936.59;5067631;28;20237;-73
2022/10/06 07:45:48;;;;;;;15.87;13.33;;;;;;;10.94;83.59;93946.34;5069186;28;21169;-72
2022/10/06 07:48:19;;;;;;;13.93;12.67;;;;;;;10.94;83.41;93962.78;5068220;28;20229;-72
2022/10/06 07:50:50;;;;;;;14.13;13.03;;;;;;;10.97;84.52;93962.28;5068584;28;20228;-71
2022/10/06 07:53:16;;;;;;;14.97;13.63;;;;;;;11.23;84.10;93971.16;5068314;28;20225;-71
2022/10/06 07:55:45;;;;;;;14.07;12.80;;;;;;;11.56;82.72;93964.88;5067965;28;20196;-70
2022/10/06 07:58:16;;;;;;;12.77;11.77;;;;;;;11.83;79.03;93961.16;5066844;28;20246;-71
2022/10/06 08:00:42;;;;;;;12.60;11.40;;;;;;;11.99;77.75;93972.50;5068615;28;20193;-68
2022/10/06 08:03:09;;;;;;;12.60;11.40;;;;;;;11.88;78.58;93973.47;5067844;28;20235;-71
2022/10/06 08:05:35;;;;;;;11.97;10.97;;;;;;;11.99;78.04;93967.25;5068446;28;20192;-70
2022/10/06 08:08:01;;;;;;;11.87;11.17;;;;;;;12.12;76.22;93970.25;5069370;28;20233;-69
2022/10/06 08:10:26;;;;;;;12.57;11.67;;;;;;;12.14;76.41;93960.28;5068989;28;20214;-70
2022/10/06 08:12:52;;;;;;;12.80;11.90;;;;;;;11.79;77.35;93956.69;5065531;28;20233;-70
2022/10/06 08:15:18;;;;;;;12.20;11.43;;;;;;;12.27;76.24;93982.59;5068084;28;20197;-71
2022/10/06 08:17:43;;;;;;;12.53;11.57;;;;;;;12.09;77.83;93977.81;5068007;28;20235;-72
2022/10/06 08:20:13;;;;;;;13.17;12.27;;;;;;;12.41;75.37;93978.47;5069962;28;20310;-71
2022/10/06 08:22:39;;;;;;;12.50;10.97;;;;;;;12.48;75.26;93981.66;5070757;28;20227;-71
2022/10/06 08:25:08;;;;;;;13.00;12.07;;;;;;;12.50;73.93;93974.31;5071896;28;20216;-69
2022/10/06 08:27:35;;;;;;;11.93;10.87;;;;;;;12.62;74.31;93975.66;5071452;28;20251;-71
2022/10/06 08:30:01;;;;;;;12.93;11.77;;;;;;;12.44;74.83;93972.72;5071425;28;20201;-70
2022/10/06 08:32:26;;;;;;;12.27;11.07;;;;;;;12.58;74.70;93974.63;5071241;28;20229;-70
2022/10/06 08:34:52;;;;;;;13.27;11.70;;;;;;;12.83;73.20;93981.75;5068768;28;20193;-70
2022/10/06 08:37:22;;;;;;;13.07;11.83;;;;;;;12.63;72.93;93952.88;5071865;28;20225;-70
2022/10/06 08:39:55;;;;;;;16.00;11.70;;;;;;;12.83;71.83;93971.28;5099153;28;20197;-70
2022/10/06 08:42:38;;;;;;;13.90;12.73;;;;;;;13.07;71.63;93982.91;5071414;28;20240;-71
2022/10/06 08:45:27;;;;;;;14.30;12.63;;;;;;;13.10;70.96;93977.16;5071183;28;20225;-71
2022/10/06 08:48:28;;;;;;;15.07;13.57;;;;;;;13.14;70.96;93975.56;5057823;28;20233;-71
2022/10/06 08:51:07;;;;;;;13.27;11.93;;;;;;;12.86;73.63;93974.19;5055103;28;20203;-72
2022/10/06 08:53:45;;;;;;;20.13;12.43;;;;;;;12.99;72.86;93975.53;5070986;28;20229;-71
2022/10/06 08:56:19;;;;;;;16.17;14.57;;;;;;;13.18;72.07;93967.97;5069623;28;20181;-70
2022/10/06 08:58:57;;;;;;;13.70;12.47;;;;;;;13.36;71.57;93970.88;5069676;28;20229;-69
2022/10/06 09:01:48;;;;;;;14.50;13.30;;;;;;;13.61;70.23;93981.38;5071217;28;20193;-71
2022/10/06 09:04:25;;;;;;;15.13;13.33;;;;;;;13.67;69.28;93980.31;5070389;28;20233;-71
2022/10/06 09:07:02;;;;;;;14.40;13.10;;;;;;;13.48;72.10;93973.25;5070573;28;20189;-70
2022/10/06 09:09:34;;;;;;;13.87;12.67;;;;;;;13.33;70.72;93981.09;5071176;28;20260;-70
2022/10/06 09:12:03;;;;;;;19.10;13.83;;;;;;;13.57;70.12;93961.16;5071053;28;21043;-71
2022/10/06 09:14:52;;;;;;;13.67;12.43;;;;;;;13.43;71.24;93976.63;5071350;28;20261;-72
2022/10/06 09:17:30;;;;;;;15.57;14.00;;;;;;;13.12;70.86;93961.91;5070569;28;20841;-73
2022/10/06 09:20:02;;;;;;;13.50;12.47;;;;;;;13.99;68.66;93975.53;5070253;28;20194;-71
2022/10/06 09:22:30;;;;;;;15.53;14.27;;;;;;;13.69;69.03;93965.09;5058871;28;20234;-71
2022/10/06 09:25:00;;;;;;;13.87;12.70;;;;;;;14.09;67.45;93967.66;5041226;28;20213;-71
2022/10/06 09:27:32;;;;;;;15.30;13.73;;;;;;;14.16;67.03;93964.75;5040235;28;20233;-72
2022/10/06 09:29:58;;;;;;;19.23;13.67;;;;;;;14.13;67.07;93960.03;5045297;28;20187;-72
2022/10/06 09:32:25;;;;;;;15.30;12.57;;;;;;;13.93;68.32;93962.72;5042103;28;20255;-71
2022/10/06 09:34:56;;;;;;;15.27;13.20;;;;;;;14.21;67.53;93960.25;5050280;28;20207;-71
2022/10/06 09:37:22;;;;;;;13.53;12.20;;;;;;;14.32;66.93;93963.66;5057368;28;20221;-71
2022/10/06 09:39:50;;;;;;;13.43;12.30;;;;;;;14.39;66.88;93957.09;5070367;28;20189;-71
2022/10/06 09:42:22;;;;;;;13.37;12.17;;;;;;;14.54;65.56;93956.22;5068997;28;20251;-71
2022/10/06 09:45:22;;;;;;;14.47;13.17;;;;;;;14.58;66.88;93961.75;5069922;28;20213;-72
2022/10/06 09:47:49;;;;;;;16.60;12.33;;;;;;;14.20;66.24;93908.78;5068212;28;20240;-72
2022/10/06 09:50:19;;;;;;;14.00;12.67;;;;;;;14.75;65.39;93956.94;5070310;28;20197;-72
2022/10/06 09:52:56;;;;;;;13.70;12.37;;;;;;;14.72;65.56;93952.22;5068175;28;20237;-72
2022/10/06 09:55:27;;;;;;;13.90;12.53;;;;;;;14.78;65.24;93922.22;5069420;28;20189;-74
2022/10/06 09:57:56;;;;;;;14.50;13.00;;;;;;;14.99;64.22;93945.47;5068748;28;20340;-71
2022/10/06 10:00:36;;;;;;;13.57;12.57;;;;;;;15.03;63.37;93949.16;5070042;28;20216;-72
2022/10/06 10:03:06;;;;;;;13.27;11.90;;;;;;;14.93;63.69;93953.66;5069033;28;20288;-73
2022/10/06 10:05:35;;;;;;;13.80;12.40;;;;;;;14.98;63.04;93951.00;5069873;28;20249;-72
2022/10/06 10:08:23;;;;;;;14.17;12.63;;;;;;;14.93;63.08;93951.84;5067334;28;20239;-72
2022/10/06 10:12:23;;;;;;;16.63;13.50;;;;;;;14.53;64.95;93941.53;5069462;28;20253;-72
2022/10/06 10:13:56;;;;;;;13.50;12.40;;;;;;;14.92;64.52;93946.84;5067643;28;20242;-73
2022/10/06 10:16:29;;;;;;;14.03;12.90;;;;;;;15.28;62.86;93951.63;5069846;28;20195;-73
2022/10/06 10:18:55;;;;;;;13.27;12.17;;;;;;;15.37;62.42;93947.34;5069250;28;20225;-72
2022/10/06 10:21:28;;;;;;;13.27;11.97;;;;;;;15.16;61.69;93927.47;5070209;28;20185;-71
2022/10/06 10:23:57;;;;;;;13.97;12.50;;;;;;;15.23;61.93;93946.38;5068893;28;20229;-73
2022/10/06 10:26:25;;;;;;;12.47;11.67;;;;;;;15.58;60.19;93945.38;5070004;28;20207;-71
2022/10/06 10:29:29;;;;;;;12.97;11.70;;;;;;;15.48;60.61;93943.59;5069678;28;20278;-71
2022/10/06 10:31:57;;;;;;;13.03;12.03;;;;;;;15.56;61.79;93939.59;5068822;28;20224;-72
2022/10/06 10:34:23;;;;;;;11.93;11.03;;;;;;;15.64;61.92;93933.72;5068584;28;20727;-72
2022/10/06 10:36:55;;;;;;;13.03;11.93;;;;;;;15.80;63.15;93927.25;5067773;28;20262;-74
2022/10/06 10:39:36;;;;;;;12.03;11.33;;;;;;;15.79;58.15;93921.22;5068890;28;20186;-73
2022/10/06 10:42:08;;;;;;;13.13;11.83;;;;;;;15.94;58.00;93909.72;5066732;28;20221;-73
2022/10/06 10:44:40;;;;;;;12.17;11.17;;;;;;;16.15;57.24;93905.81;5067346;28;20204;-73
2022/10/06 10:47:20;;;;;;;12.57;11.30;;;;;;;15.96;58.41;93915.50;5069014;28;20245;-73
2022/10/06 10:49:52;;;;;;;11.73;10.73;;;;;;;15.78;57.00;93906.44;5069898;28;20215;-73
2022/10/06 10:52:22;;;;;;;12.40;11.17;;;;;;;15.88;59.14;93914.28;5069845;28;20251;-72
2022/10/06 10:55:10;;;;;;;12.80;11.30;;;;;;;16.18;56.50;93901.81;5067516;28;20178;-73
2022/10/06 10:57:40;;;;;;;12.50;11.30;;;;;;;16.29;57.43;93892.75;5068871;28;20248;-73
2022/10/06 11:00:06;;;;;;;10.53;9.73;;;;;;;16.36;56.54;93914.28;5069158;28;20182;-73
2022/10/06 11:02:34;;;;;;;11.57;10.57;;;;;;;16.41;53.94;93909.72;5068310;28;20264;-73
2022/10/06 11:05:15;;;;;;;11.83;10.83;;;;;;;16.52;51.04;93895.38;5067605;28;20316;-73
2022/10/06 11:07:57;;;;;;;11.73;10.83;;;;;;;16.44;51.00;93917.09;5066398;28;20220;-73
2022/10/06 11:10:33;;;;;;;10.57;9.87;;;;;;;16.46;50.26;93896.53;5068602;28;20203;-73
2022/10/06 11:13:09;;;;;;;11.10;10.23;;;;;;;16.49;50.02;93897.78;5068372;28;20255;-73
2022/10/06 11:15:53;;;;;;;10.60;9.80;;;;;;;16.54;49.69;93901.16;5069036;28;20245;-72
2022/10/06 11:18:52;;;;;;;11.70;10.67;;;;;;;16.84;45.26;93902.63;5069118;28;20220;-73
2022/10/06 11:21:26;;;;;;;10.27;9.57;;;;;;;16.93;41.62;93893.78;5067692;28;20197;-72
2022/10/06 11:24:18;;;;;;;10.60;9.90;;;;;;;17.11;39.54;93879.78;5068155;28;20267;-72
2022/10/06 11:27:17;;;;;;;10.87;10.17;;;;;;;17.20;41.15;93888.59;5064108;28;20211;-71
2022/10/06 11:30:10;;;;;;;10.10;9.17;;;;;;;17.19;38.80;93889.69;5068945;28;20193;-70
2022/10/06 11:32:48;;;;;;;10.10;9.37;;;;;;;16.88;39.91;93882.50;5068601;28;20237;-69
2022/10/06 11:35:25;;;;;;;10.20;9.60;;;;;;;17.17;40.02;93878.63;5068536;28;21173;-71
2022/10/06 11:38:17;;;;;;;10.33;9.70;;;;;;;16.94;39.72;93874.22;5068727;28;20209;-72
2022/10/06 11:41:20;;;;;;;9.93;9.20;;;;;;;16.98;39.63;93874.44;5069065;28;20185;-73
2022/10/06 11:44:12;;;;;;;10.23;9.33;;;;;;;16.91;38.06;93872.16;5068424;28;20233;-70
2022/10/06 11:46:42;;;;;;;9.20;8.70;;;;;;;16.98;37.37;93864.66;5068078;28;20194;-73
2022/10/06 11:49:30;;;;;;;9.43;8.60;;;;;;;16.86;35.72;93864.31;5068275;28;20193;-73